KDHT/DHT METAR and TAF weather

Enter ICAO airport designator
Station Type Date Time Source
KDHT METAR 2020/09/18 07:53 UTC NOAA

KDHT 180753Z AUTO 00000KT 8SM CLR 13/09 A3028 RMK AO2 SLP207 T01330094


Station Type Date Time Source
KDHT Decoded METAR 2020/09/18 07:53 UTC NOAA

DALHART MUNICIPAL AIRPORT, TX, United States (KDHT) 36-01N 102-33W 1217M
Sep 18, 2020 - 03:53 AM EDT / 2020.09.18 0753 UTC
Wind: Calm:0
Visibility: 8 mile(s):0
Sky conditions: clear
Temperature: 55.9 F (13.3 C)
Dew Point: 48.9 F (9.4 C)
Relative Humidity: 77%
Pressure (altimeter): 30.28 in. Hg (1025 hPa)
ob: KDHT 180753Z AUTO 00000KT 8SM CLR 13/09 A3028 RMK AO2 SLP207 T01330094
cycle: 8

Station Type Date Time Source
KDHT TAF 2020/09/18 06:36 UTC NOAA

TAF KDHT 180534Z 1806/1906 VRB06KT P6SM SKC
FM181900 17010G15KT P6SM SKC

Example: see airport list